Have a Safe July 4th! 

Flight Track Log - Related Links

Times and Time Zones

All times are in EST time to prevent confusion due to time zone crossing. See the N9990V flight status page for this flight to view local times or setup timezone preferences in your user account.

Time Position Orientation Groundspeed Altitude Reporting Facility
EST Latitude Longitude Course Direction KTS MPH feet Rate Location/Type
Fri 02:41:28 PM 32.6203 -81.1586 349° North 111 128 2,600  Level Jacksonville Center
Fri 02:42:28 PM 32.6494 -81.1656 349° North 105 121 2,600 -50 Level Jacksonville Center
Fri 02:43:28 PM 32.6872 -81.1672 358° North 110 127 2,500 -50 Descending Jacksonville Center
Fri 02:44:28 PM 32.7164 -81.1642 North 110 127 2,500  Level Jacksonville Center
Fri 02:45:28 PM 32.7497 -81.1611 North 110 127 2,500 50 Level Jacksonville Center
Fri 02:46:28 PM 32.7767 -81.1581 North 105 121 2,600  Climbing Jacksonville Center
Fri 02:47:28 PM 32.8058 -81.1525 North 105 121 2,500 -50 Descending Jacksonville Center
Fri 02:48:28 PM 32.8394 -81.1519 North 105 121 2,500  Level Jacksonville Center
Fri 02:49:28 PM 32.8706 -81.1514 North 105 121 2,500  Level Jacksonville Center
Fri 02:50:28 PM 32.9000 -81.1583 349° North 105 121 2,500 50 Level Jacksonville Center
Fri 02:51:28 PM 32.9292 -81.1600 357° North 105 121 2,600 50 Climbing Jacksonville Center
Fri 02:52:28 PM 32.9606 -81.1619 357° North 105 121 2,600 -50 Level Jacksonville Center
Fri 02:53:28 PM 32.9897 -81.1664 353° North 105 121 2,500 -50 Descending Jacksonville Center
Fri 02:54:28 PM 33.0211 -81.1731 350° North 105 121 2,500  Level Jacksonville Center
Fri 02:55:28 PM 33.0506 -81.1775 353° North 105 121 2,500  Level Jacksonville Center
Fri 02:56:28 PM 33.0839 -81.1819 354° North 105 121 2,500  Level Jacksonville Center
Fri 02:57:28 PM 33.1111 -81.1889 348° North 105 121 2,500  Level Jacksonville Center
Fri 02:58:28 PM 33.1425 -81.1883 North 105 121 2,500  Level Jacksonville Center
Fri 02:59:28 PM 33.1717 -81.1903 357° North 105 121 2,500 50 Level Jacksonville Center
Fri 03:00:28 PM 33.2011 -81.1969 349° North 105 121 2,600  Climbing Jacksonville Center
Fri 03:01:28 PM 33.2344 -81.1989 357° North 105 121 2,500  Descending Jacksonville Center
Fri 03:02:28 PM 33.2636 -81.2008 357° North 100 115 2,600 100 Climbing Jacksonville Center
Fri 03:04:00 PM 33.3111 -81.2409 352° North  Level FlightAware Approximate
Fri 03:11:00 PM 33.5452 -81.2806 352° North  Level FlightAware Approximate
Fri 03:12:00 PM 33.5786 -81.2863 352° North  Level FlightAware Approximate
Fri 03:13:00 PM 33.6121 -81.2920 352° North  Level FlightAware Approximate
Fri 03:14:00 PM 33.6455 -81.2977 352° North  Level FlightAware Approximate
Fri 03:15:00 PM 33.6790 -81.3034 352° North  Level FlightAware Approximate
Fri 03:16:00 PM 33.7124 -81.3091 352° North  Level FlightAware Approximate
Fri 03:17:00 PM 33.7458 -81.3148 352° North  Level FlightAware Approximate
Fri 03:18:00 PM 33.7793 -81.3205 352° North  Level FlightAware Approximate
Fri 03:19:00 PM 33.8127 -81.3263 352° North  Level FlightAware Approximate
Fri 03:20:00 PM 33.8462 -81.3320 352° North  Level FlightAware Approximate
Fri 03:21:00 PM 33.8796 -81.3377 352° North  Level FlightAware Approximate
Fri 03:22:00 PM 33.9130 -81.3435 352° North  Level FlightAware Approximate
Fri 03:23:00 PM 33.9465 -81.3492 352° North  Level FlightAware Approximate
Fri 03:24:00 PM 33.9799 -81.3549 352° North  Level FlightAware Approximate
Fri 03:25:00 PM 34.0134 -81.3607 352° North  Level FlightAware Approximate
Fri 03:26:00 PM 34.0468 -81.3665 352° North  Level FlightAware Approximate
Fri 03:27:00 PM 34.0802 -81.3722 352° North  Level FlightAware Approximate
Fri 03:28:00 PM 34.1137 -81.3780 352° North  Level FlightAware Approximate
Fri 03:29:00 PM 34.1471 -81.3838 352° North  Level FlightAware Approximate
Fri 03:30:00 PM 34.1806 -81.3895 352° North  Level FlightAware Approximate
Fri 03:31:00 PM 34.2140 -81.3953 352° North  Level FlightAware Approximate
Fri 03:32:00 PM 34.2474 -81.4011 352° North  Level FlightAware Approximate
Fri 03:33:00 PM 34.2809 -81.4069 352° North  Level FlightAware Approximate
Fri 03:34:00 PM 34.3143 -81.4127 352° North  Level FlightAware Approximate
Fri 03:35:00 PM 34.3478 -81.4185 352° North  Level FlightAware Approximate
Fri 03:36:00 PM 34.3812 -81.4243 352° North  Level FlightAware Approximate
Fri 03:37:00 PM 34.4146 -81.4301 352° North  Level FlightAware Approximate
Fri 03:38:00 PM 34.4481 -81.4363 351° North  Level FlightAware Approximate
Fri 03:39:00 PM 34.4814 -81.4429 351° North  Level FlightAware Approximate
Fri 03:40:00 PM 34.5147 -81.4496 351° North  Level FlightAware Approximate
Fri 03:41:00 PM 34.5480 -81.4562 351° North  Level FlightAware Approximate
Fri 03:42:00 PM 34.5814 -81.4629 351° North  Level FlightAware Approximate
Fri 03:43:00 PM 34.6147 -81.4695 351° North  Level FlightAware Approximate
Fri 03:44:00 PM 34.6480 -81.4762 351° North  Level FlightAware Approximate
Fri 03:45:00 PM 34.6814 -81.4829 351° North  Level FlightAware Approximate
Fri 03:46:00 PM 34.7147 -81.4896 351° North  Level FlightAware Approximate
Fri 03:47:00 PM 34.7480 -81.4963 351° North  Level FlightAware Approximate
Fri 03:48:00 PM 34.7814 -81.5029 351° North  Level FlightAware Approximate
Fri 03:49:00 PM 34.8147 -81.5096 351° North  Level FlightAware Approximate
Fri 03:50:00 PM 34.8480 -81.5162 351° North  Level FlightAware Approximate
Fri 03:51:00 PM 34.8814 -81.5229 351° North  Level FlightAware Approximate
Fri 03:52:00 PM 34.9147 -81.5295 351° North  Level FlightAware Approximate
Fri 03:53:00 PM 34.9481 -81.5362 351° North  Level FlightAware Approximate
Fri 03:54:00 PM 34.9814 -81.5428 351° North  Level FlightAware Approximate
Fri 03:55:00 PM 35.0147 -81.5495 351° North  Level FlightAware Approximate
Fri 03:56:00 PM 35.0480 -81.5562 351° North  Level FlightAware Approximate
Fri 03:57:00 PM 35.0814 -81.5629 351° North  Level FlightAware Approximate
Fri 03:58:00 PM 35.1147 -81.5695 351° North  Level FlightAware Approximate
Fri 03:59:00 PM 35.1480 -81.5762 351° North  Level FlightAware Approximate
Fri 04:00:00 PM 35.1814 -81.5829 351° North  Level FlightAware Approximate
Fri 04:01:00 PM 35.2146 -81.5882 345° North  Level FlightAware Approximate
Fri 04:02:00 PM 35.2472 -81.5991 345° North  Level FlightAware Approximate
Fri 04:03:00 PM 35.2500 -81.6000 345° North  Level FlightAware Approximate
Fri 04:04:00 PM 35.2557 -81.6008 345° North  Level Estimated
Fri 04:05:00 PM 35.2500 -81.6000 345° North  Level FlightAware Approximate
Fri 04:06:00 PM 35.2557 -81.6008 345° North  Level Estimated
Fri 04:07:00 PM 35.2500 -81.6000 345° North  Level FlightAware Approximate
Fri 04:08:00 PM 35.2557 -81.6008 345° North  Level Estimated
Fri 04:09:00 PM 35.2500 -81.6000 345° North  Level FlightAware Approximate
Fri 04:10:00 PM 35.2557 -81.6008 345° North  Level Estimated
Fri 04:11:00 PM 35.2500 -81.6000 345° North  Level FlightAware Approximate
Fri 04:12:00 PM 35.2557 -81.6008 345° North  Level Estimated
Fri 04:13:00 PM 35.2500 -81.6000 345° North  Level FlightAware Approximate
Fri 04:14:00 PM 35.2557 -81.6008 345° North  Level Estimated
Fri 04:15:00 PM 35.2500 -81.6000 345° North  Level FlightAware Approximate
Fri 04:16:00 PM 35.2557 -81.6008 345° North  Level Estimated

Login

Don't have an account? Register now (free) for customized features, flight alerts, and more!